Time;durP1;ratioP1;P1;durP2;ratioP2;P2;SDS_P1;SDS_P2;PMS_P1;PMS_P2;Temp;Humidity;BMP_temperature;BMP_pressure;BME280_temperature;BME280_humidity;BME280_pressure;Samples;Min_cycle;Max_cycle;Signal;HPM_P1;HPM_P2
2023/09/05 00:00:12;;;;;;;1.00;0.90;;;;;;;18.16;55.06;99560.94;4977606;28;39791;-80
2023/09/05 00:02:41;;;;;;;1.20;1.10;;;;;;;18.02;54.93;99532.56;4977677;28;41889;-79
2023/09/05 00:05:11;;;;;;;1.00;1.00;;;;;;;18.12;55.31;99551.44;4977347;28;43130;-80
2023/09/05 00:07:39;;;;;;;1.20;0.90;;;;;;;18.11;55.36;99550.56;4992779;28;41859;-79
2023/09/05 00:10:10;;;;;;;1.10;1.00;;;;;;;18.09;55.39;99560.56;4992760;28;40057;-78
2023/09/05 00:12:40;;;;;;;1.60;1.30;;;;;;;18.04;55.35;99551.22;4994186;28;40867;-78
2023/09/05 00:15:11;;;;;;;1.77;1.47;;;;;;;18.04;55.31;99552.06;4979726;28;42344;-78
2023/09/05 00:17:40;;;;;;;1.27;1.17;;;;;;;17.94;55.63;99551.09;4980060;28;41174;-80
2023/09/05 00:20:09;;;;;;;1.07;1.00;;;;;;;17.91;55.49;99546.84;4979750;28;39064;-77
2023/09/05 00:22:36;;;;;;;1.47;1.17;;;;;;;17.85;55.70;99541.97;4979410;28;41903;-77
2023/09/05 00:25:05;;;;;;;1.27;1.17;;;;;;;17.89;56.03;99550.63;4996095;28;42626;-78
2023/09/05 00:27:34;;;;;;;1.70;1.17;;;;;;;17.87;56.13;99555.25;4979523;28;41199;-80
2023/09/05 00:30:03;;;;;;;1.27;1.17;;;;;;;17.83;56.03;99551.13;4979539;28;38951;-78
2023/09/05 00:32:34;;;;;;;1.50;0.97;;;;;;;17.75;56.07;99546.41;4980043;28;42623;-78
2023/09/05 00:35:02;;;;;;;1.07;0.97;;;;;;;17.80;56.21;99548.72;4995627;28;42605;-79
2023/09/05 00:37:30;;;;;;;1.20;1.10;;;;;;;17.78;56.79;99550.66;4995810;28;43082;-78
2023/09/05 00:39:57;;;;;;;1.67;1.57;;;;;;;17.67;56.97;99526.56;4980358;28;38968;-80
2023/09/05 00:42:25;;;;;;;1.20;1.10;;;;;;;17.76;56.96;99539.22;4980515;28;40958;-77
2023/09/05 00:44:53;;;;;;;1.20;1.10;;;;;;;17.69;56.73;99527.28;4996521;28;42906;-78
2023/09/05 00:47:29;;;;;;;2.50;1.33;;;;;;;17.72;57.18;99532.38;4996837;28;42169;-80
2023/09/05 00:49:58;;;;;;;1.80;1.10;;;;;;;17.73;56.62;99537.63;4980517;28;41323;-77
2023/09/05 00:52:28;;;;;;;1.70;1.07;;;;;;;17.70;56.90;99539.69;4980208;28;40772;-78
2023/09/05 00:54:55;;;;;;;1.33;1.17;;;;;;;17.69;56.59;99540.66;4981395;28;41699;-78
2023/09/05 00:57:24;;;;;;;1.00;1.00;;;;;;;17.69;56.59;99546.03;4998470;28;42198;-80
2023/09/05 00:59:52;;;;;;;1.07;0.90;;;;;;;17.66;56.60;99547.16;4996532;28;40759;-80
2023/09/05 01:02:20;;;;;;;1.50;1.20;;;;;;;17.63;56.94;99549.19;4980445;28;41791;-79
2023/09/05 01:04:47;;;;;;;1.10;1.00;;;;;;;17.55;57.27;99545.31;4980034;28;41928;-80
2023/09/05 01:07:30;;;;;;;1.20;1.10;;;;;;;17.55;57.49;99558.69;4978097;28;41653;-77
2023/09/05 01:10:06;;;;;;;2.63;1.40;;;;;;;17.51;57.04;99553.69;5010273;28;40665;-79
2023/09/05 01:12:34;;;;;;;1.23;1.13;;;;;;;17.46;57.09;99556.72;4979262;28;40410;-78
2023/09/05 01:15:01;;;;;;;1.20;1.10;;;;;;;17.42;57.76;99560.66;4979035;28;43239;-79
2023/09/05 01:17:29;;;;;;;2.40;1.10;;;;;;;17.39;57.75;99571.59;4995458;28;42340;-79
2023/09/05 01:19:57;;;;;;;1.83;1.07;;;;;;;17.35;57.96;99570.13;4978931;28;39291;-78
2023/09/05 01:22:44;;;;;;;1.30;1.20;;;;;;;17.32;58.10;99566.81;4978985;28;40444;-77
2023/09/05 01:25:13;;;;;;;1.20;1.10;;;;;;;17.28;58.05;99571.59;4992859;28;42869;-77
2023/09/05 01:27:42;;;;;;;0.93;0.90;;;;;;;17.24;59.15;99568.28;4978661;28;41448;-78
2023/09/05 01:30:10;;;;;;;1.57;1.20;;;;;;;17.14;59.07;99555.75;4994940;28;39137;-77
2023/09/05 01:32:38;;;;;;;1.47;1.23;;;;;;;17.19;59.59;99569.59;4994878;28;41854;-79
2023/09/05 01:35:07;;;;;;;1.30;1.20;;;;;;;17.16;59.47;99568.06;4994876;28;43826;-79
2023/09/05 01:37:35;;;;;;;1.10;1.00;;;;;;;17.17;59.26;99564.41;4994749;28;42285;-80
2023/09/05 01:40:03;;;;;;;1.00;1.00;;;;;;;17.16;59.40;99564.53;4979752;28;40841;-76
2023/09/05 01:42:32;;;;;;;1.07;1.03;;;;;;;17.17;59.08;99563.56;4979579;28;41768;-78
2023/09/05 01:45:00;;;;;;;1.20;1.10;;;;;;;17.16;59.19;99569.88;4979273;28;41481;-78
2023/09/05 01:47:27;;;;;;;1.07;0.80;;;;;;;17.16;59.29;99569.88;4995901;28;42373;-79
2023/09/05 01:49:55;;;;;;;1.10;1.00;;;;;;;17.16;59.31;99569.88;4978544;28;40312;-77
2023/09/05 01:52:23;;;;;;;1.33;1.13;;;;;;;17.15;59.39;99574.38;4978114;28;40836;-79
2023/09/05 01:54:50;;;;;;;1.43;1.20;;;;;;;17.15;59.42;99569.03;5012059;28;42732;-78
2023/09/05 01:57:18;;;;;;;1.00;0.90;;;;;;;17.15;59.32;99563.66;4970751;28;42264;-78
2023/09/05 01:59:46;;;;;;;1.13;1.03;;;;;;;17.17;59.32;99563.56;5006887;28;41038;-77
2023/09/05 02:02:15;;;;;;;1.33;1.00;;;;;;;17.15;59.12;99563.66;4994518;28;40286;-76
2023/09/05 02:04:42;;;;;;;1.33;0.90;;;;;;;17.14;59.50;99570.00;5011903;28;42798;-78
2023/09/05 02:07:10;;;;;;;1.77;0.77;;;;;;;17.13;59.40;99564.75;4994473;28;43249;-78
2023/09/05 02:09:37;;;;;;;1.20;1.10;;;;;;;17.12;59.51;99573.75;4994084;28;39115;-77
2023/09/05 02:12:05;;;;;;;1.00;0.97;;;;;;;17.08;59.48;99562.41;4978182;28;41205;-79
2023/09/05 02:14:36;;;;;;;0.90;0.90;;;;;;;17.10;59.48;99573.88;4994025;28;42711;-77
2023/09/05 02:17:05;;;;;;;1.20;1.07;;;;;;;17.02;59.58;99556.72;4991674;28;42342;-77
2023/09/05 02:19:33;;;;;;;1.47;1.23;;;;;;;17.08;59.70;99566.91;4978002;28;38917;-77
2023/09/05 02:22:00;;;;;;;1.30;1.20;;;;;;;17.03;59.76;99563.78;4994630;28;41995;-80
2023/09/05 02:24:28;;;;;;;1.10;1.00;;;;;;;17.03;59.82;99563.78;4993925;28;41820;-78
2023/09/05 02:26:56;;;;;;;1.53;1.10;;;;;;;17.05;60.10;99572.53;4994324;28;42002;-77
2023/09/05 02:29:26;;;;;;;1.00;0.90;;;;;;;16.95;59.88;99560.81;4994038;28;40344;-78
2023/09/05 02:31:53;;;;;;;1.07;1.00;;;;;;;17.01;60.32;99571.06;4994411;28;41824;-77
2023/09/05 02:34:22;;;;;;;2.00;1.47;;;;;;;16.85;60.37;99542.81;4994180;28;42692;-78
2023/09/05 02:36:53;;;;;;;0.93;0.83;;;;;;;16.99;60.85;99564.97;4976914;28;42237;-80
2023/09/05 02:39:21;;;;;;;1.80;1.20;;;;;;;16.98;60.53;99573.97;4995207;28;40136;-80
2023/09/05 02:41:48;;;;;;;1.13;0.97;;;;;;;16.97;60.56;99574.94;4995126;28;42693;-79
2023/09/05 02:44:16;;;;;;;1.20;1.10;;;;;;;16.95;60.79;99567.03;4994977;28;41776;-79
2023/09/05 02:46:44;;;;;;;1.20;1.10;;;;;;;16.95;60.78;99580.41;4995585;28;42133;-80
2023/09/05 02:49:12;;;;;;;0.93;0.80;;;;;;;16.85;60.94;99566.88;4995221;28;40678;-78
2023/09/05 02:51:41;;;;;;;1.20;1.07;;;;;;;16.89;60.92;99578.22;4978291;28;41752;-77
2023/09/05 02:54:07;;;;;;;1.20;0.90;;;;;;;16.83;60.87;99574.16;4994847;28;43695;-77
2023/09/05 02:56:35;;;;;;;1.20;0.93;;;;;;;16.84;61.06;99575.88;4995103;28;42362;-80
2023/09/05 02:59:02;;;;;;;1.37;1.27;;;;;;;16.72;61.53;99560.78;4994769;28;38778;-80
2023/09/05 03:01:30;;;;;;;0.90;0.80;;;;;;;16.81;61.30;99568.09;4978656;28;40621;-79
2023/09/05 03:03:57;;;;;;;1.30;1.20;;;;;;;16.78;62.29;99563.00;4978630;28;41713;-80
2023/09/05 03:06:25;;;;;;;1.80;1.27;;;;;;;16.49;61.96;99526.88;4977368;28;42270;-77
2023/09/05 03:08:56;;;;;;;1.30;1.07;;;;;;;16.75;61.94;99571.25;4976917;28;39016;-80
2023/09/05 03:11:24;;;;;;;1.43;1.30;;;;;;;16.73;61.80;99562.47;4993695;28;41882;-80
2023/09/05 03:13:52;;;;;;;1.33;1.20;;;;;;;16.73;63.16;99564.28;4977346;28;42511;-78
2023/09/05 03:16:21;;;;;;;1.60;1.30;;;;;;;16.58;63.13;99539.53;4976767;28;41138;-77
2023/09/05 03:18:51;;;;;;;1.20;1.10;;;;;;;16.71;63.83;99563.56;4977281;28;40005;-78
2023/09/05 03:21:19;;;;;;;1.37;1.20;;;;;;;16.69;64.12;99561.00;4993469;28;42469;-79
2023/09/05 03:23:48;;;;;;;1.50;1.20;;;;;;;16.58;64.03;99546.72;4977188;28;42155;-78
2023/09/05 03:26:18;;;;;;;1.10;1.10;;;;;;;16.67;63.58;99560.28;4993306;28;41948;-79
2023/09/05 03:28:47;;;;;;;2.70;1.47;;;;;;;16.67;64.15;99552.25;5010136;28;38883;-77
2023/09/05 03:31:18;;;;;;;1.60;1.50;;;;;;;16.67;64.16;99557.63;4985633;28;43565;-77
2023/09/05 03:33:46;;;;;;;2.07;1.53;;;;;;;16.66;63.81;99561.25;4977045;28;44466;-80
2023/09/05 03:36:14;;;;;;;1.40;1.30;;;;;;;16.64;64.11;99560.50;4992977;28;43105;-79
2023/09/05 03:38:41;;;;;;;1.60;1.50;;;;;;;16.42;64.07;99520.31;4994913;28;40508;-80
2023/09/05 03:41:09;;;;;;;1.30;1.20;;;;;;;16.61;64.06;99558.03;4993740;28;40495;-80
2023/09/05 03:43:39;;;;;;;1.80;1.30;;;;;;;16.61;64.15;99549.16;5011687;28;43516;-79
2023/09/05 03:46:07;;;;;;;1.30;1.20;;;;;;;16.61;64.61;99543.81;4977675;28;41432;-79
2023/09/05 03:48:34;;;;;;;1.90;1.37;;;;;;;16.59;64.19;99551.94;4980529;28;39292;-77
2023/09/05 03:51:02;;;;;;;1.20;1.10;;;;;;;16.57;64.45;99540.50;4981094;28;41857;-78
2023/09/05 03:53:31;;;;;;;1.30;1.20;;;;;;;16.42;63.80;99529.19;4981232;28;43168;-80
2023/09/05 03:55:58;;;;;;;1.63;1.10;;;;;;;16.53;64.03;99547.06;4981166;28;41080;-78
2023/09/05 03:58:26;;;;;;;1.50;1.40;;;;;;;16.52;64.16;99542.69;4997751;28;40003;-77
2023/09/05 04:01:03;;;;;;;2.27;1.70;;;;;;;16.51;64.15;99541.00;4980950;28;41825;-77
2023/09/05 04:03:33;;;;;;;2.53;1.63;;;;;;;16.46;64.56;99540.47;4981208;28;41886;-78
2023/09/05 04:06:01;;;;;;;2.37;1.67;;;;;;;16.36;64.44;99520.75;4980330;28;40985;-79
2023/09/05 04:08:30;;;;;;;1.60;1.40;;;;;;;16.44;64.30;99529.88;4981242;28;40005;-78
2023/09/05 04:10:59;;;;;;;1.90;1.43;;;;;;;16.28;64.32;99497.28;4996482;28;41886;-79
2023/09/05 04:13:28;;;;;;;3.10;1.40;;;;;;;16.40;64.68;99532.94;4979958;28;42732;-81
2023/09/05 04:16:02;;;;;;;1.40;1.30;;;;;;;16.42;64.63;99537.19;4979683;28;41231;-78
2023/09/05 04:18:31;;;;;;;1.63;1.20;;;;;;;16.40;64.29;99532.94;4996204;28;39370;-78
2023/09/05 04:20:59;;;;;;;1.93;1.50;;;;;;;16.39;64.63;99536.56;5013435;28;41832;-78
2023/09/05 04:23:27;;;;;;;1.23;1.13;;;;;;;16.38;65.10;99524.16;4979547;28;41925;-78
2023/09/05 04:25:59;;;;;;;1.90;1.50;;;;;;;16.35;65.21;99529.75;4995704;28;42237;-77
2023/09/05 04:28:29;;;;;;;2.10;1.60;;;;;;;16.36;64.90;99531.44;4993524;28;39701;-78
2023/09/05 04:31:02;;;;;;;1.27;1.17;;;;;;;16.27;65.02;99516.09;4979276;28;40606;-78
2023/09/05 04:33:31;;;;;;;2.00;1.60;;;;;;;16.34;64.92;99528.03;4979956;28;42487;-77
2023/09/05 04:35:59;;;;;;;1.50;1.40;;;;;;;16.32;65.65;99530.00;4979220;28;42715;-80
2023/09/05 04:38:27;;;;;;;1.63;1.50;;;;;;;16.31;65.64;99530.97;4980190;28;40315;-78
2023/09/05 04:40:54;;;;;;;1.47;1.37;;;;;;;16.30;65.67;99539.94;4980127;28;40239;-78
2023/09/05 04:43:22;;;;;;;1.50;1.40;;;;;;;16.28;66.27;99532.03;4980358;28;41571;-81
2023/09/05 04:45:54;;;;;;;2.23;1.57;;;;;;;16.27;66.36;99534.81;4980098;28;41176;-79
2023/09/05 04:48:23;;;;;;;1.97;1.53;;;;;;;16.27;66.22;99522.31;4993941;28;40652;-79
2023/09/05 04:50:51;;;;;;;1.80;1.40;;;;;;;16.26;66.56;99520.59;4979885;28;40956;-79
2023/09/05 04:53:18;;;;;;;1.73;1.63;;;;;;;16.25;66.52;99518.03;4980172;28;43534;-80
2023/09/05 04:55:47;;;;;;;1.73;1.63;;;;;;;16.25;66.93;99518.03;4979898;28;41913;-80
2023/09/05 04:58:15;;;;;;;2.13;1.70;;;;;;;16.26;66.82;99525.09;5013750;28;40840;-79
2023/09/05 05:00:43;;;;;;;3.43;1.90;;;;;;;16.15;66.70;99508.06;4980246;28;40825;-77
2023/09/05 05:03:10;;;;;;;2.70;1.77;;;;;;;16.24;67.02;99516.34;5013892;28;42470;-79
2023/09/05 05:05:39;;;;;;;1.70;1.60;;;;;;;16.27;66.89;99521.47;4995870;28;42527;-78
2023/09/05 05:08:07;;;;;;;1.50;1.40;;;;;;;16.09;66.50;99495.13;4994686;28;38905;-78
2023/09/05 05:10:39;;;;;;;2.87;1.27;;;;;;;16.30;66.19;99527.44;4995185;28;42031;-80
2023/09/05 05:13:06;;;;;;;1.73;1.50;;;;;;;16.32;67.04;99527.31;4995162;28;43341;-78
2023/09/05 05:15:34;;;;;;;3.50;1.50;;;;;;;16.20;66.40;99502.34;4978878;28;41022;-79
2023/09/05 05:18:02;;;;;;;1.57;1.37;;;;;;;16.37;66.52;99533.16;4995462;28;40911;-79
2023/09/05 05:20:29;;;;;;;1.73;1.13;;;;;;;16.37;66.15;99533.16;4978504;28;42627;-79
2023/09/05 05:22:58;;;;;;;1.70;1.57;;;;;;;16.41;65.98;99537.31;4994544;28;42854;-79
2023/09/05 05:25:26;;;;;;;1.60;1.40;;;;;;;16.38;65.84;99534.88;4978569;28;41011;-79
2023/09/05 05:27:53;;;;;;;1.33;1.23;;;;;;;16.46;65.71;99543.16;4995156;28;38975;-81
2023/09/05 05:30:21;;;;;;;1.60;1.50;;;;;;;16.48;65.91;99552.75;5012426;28;41736;-78
2023/09/05 05:32:49;;;;;;;1.80;1.63;;;;;;;16.49;65.81;99556.28;4978485;28;43190;-80
2023/09/05 05:35:17;;;;;;;2.20;1.53;;;;;;;16.54;66.16;99551.47;4978117;28;41345;-80
2023/09/05 05:37:44;;;;;;;1.27;1.17;;;;;;;16.58;65.80;99546.72;4978371;28;40201;-79
2023/09/05 05:40:13;;;;;;;1.67;1.50;;;;;;;16.64;66.00;99552.50;4995642;28;40617;-78
2023/09/05 05:42:41;;;;;;;2.03;1.40;;;;;;;16.72;65.75;99551.91;4978969;28;41694;-81
2023/09/05 05:45:10;;;;;;;1.63;1.50;;;;;;;16.84;65.76;99543.78;4995243;28;42208;-78
2023/09/05 05:47:37;;;;;;;1.60;1.50;;;;;;;16.99;65.06;99551.59;4979290;28;41390;-78
2023/09/05 05:50:08;;;;;;;2.47;1.33;;;;;;;17.06;64.97;99552.84;4978312;28;40929;-75
2023/09/05 05:52:38;;;;;;;1.50;1.40;;;;;;;17.10;65.19;99543.56;4992074;28;42889;-79
2023/09/05 05:55:07;;;;;;;1.27;1.13;;;;;;;17.19;65.40;99548.19;4995010;28;44544;-78
2023/09/05 05:57:36;;;;;;;2.50;1.57;;;;;;;17.30;65.31;99553.59;4995632;28;41146;-78
2023/09/05 06:00:06;;;;;;;1.77;1.50;;;;;;;17.40;64.70;99556.38;4978773;28;40653;-81
2023/09/05 06:02:40;;;;;;;1.53;1.43;;;;;;;17.53;64.35;99557.97;4995532;28;43809;-86
2023/09/05 06:05:08;;;;;;;1.87;1.50;;;;;;;17.69;63.92;99551.38;4979151;28;42304;-84
2023/09/05 06:07:36;;;;;;;2.33;1.53;;;;;;;17.97;62.90;99539.28;4977712;28;39032;-83
2023/09/05 06:10:04;;;;;;;1.57;1.47;;;;;;;18.26;62.22;99535.06;4993831;28;41677;-83
2023/09/05 06:12:32;;;;;;;1.40;1.30;;;;;;;18.66;61.47;99559.41;4978691;28;42524;-83
2023/09/05 06:15:01;;;;;;;1.40;1.30;;;;;;;19.06;60.42;99561.34;4994894;28;42348;-82
2023/09/05 06:17:28;;;;;;;1.40;1.30;;;;;;;18.98;60.59;99554.81;4978617;28;39449;-83
2023/09/05 06:19:56;;;;;;;1.10;1.03;;;;;;;18.97;61.01;99554.94;4978392;28;40719;-84
2023/09/05 06:22:23;;;;;;;2.73;1.40;;;;;;;18.78;61.43;99522.63;4978349;28;41648;-85
2023/09/05 06:24:51;;;;;;;2.30;1.40;;;;;;;19.01;61.41;99559.09;4978284;28;41173;-85
2023/09/05 06:27:18;;;;;;;1.47;1.37;;;;;;;18.97;61.42;99531.66;4994972;28;39878;-83
2023/09/05 06:29:46;;;;;;;3.80;1.87;;;;;;;19.17;61.24;99553.22;4978587;28;40570;-81
2023/09/05 06:32:15;;;;;;;1.70;1.60;;;;;;;19.27;61.55;99549.63;4978535;28;42416;-81
2023/09/05 06:34:43;;;;;;;1.63;1.43;;;;;;;19.37;60.94;99544.28;4978344;28;43944;-84
2023/09/05 06:37:10;;;;;;;1.30;1.20;;;;;;;19.52;61.32;99551.03;4994913;28;39880;-83
2023/09/05 06:39:38;;;;;;;1.40;1.30;;;;;;;19.56;60.38;99541.69;4995587;28;41809;-83
2023/09/05 06:42:08;;;;;;;1.17;1.07;;;;;;;19.87;59.66;99564.03;5013111;28;42422;-86
2023/09/05 06:44:40;;;;;;;1.80;1.60;;;;;;;20.07;57.96;99570.28;4978837;28;41103;-81
2023/09/05 06:47:07;;;;;;;1.70;1.30;;;;;;;19.93;57.71;99519.59;4995353;28;40367;-82
2023/09/05 06:49:36;;;;;;;3.87;1.80;;;;;;;20.46;57.06;99573.06;4976450;28;40635;-82
2023/09/05 06:52:05;;;;;;;1.60;1.50;;;;;;;20.62;57.26;99570.66;4995285;28;43823;-84
2023/09/05 06:54:35;;;;;;;1.90;1.70;;;;;;;20.70;55.65;99565.41;4994392;28;43804;-86
2023/09/05 06:57:03;;;;;;;1.73;1.63;;;;;;;20.82;56.03;99544.56;4978789;28;38774;-82
2023/09/05 06:59:30;;;;;;;1.53;1.43;;;;;;;21.24;56.15;99574.69;4994387;28;41819;-83
2023/09/05 07:02:04;;;;;;;2.10;1.80;;;;;;;21.38;54.45;99585.03;5012017;28;42827;-84
2023/09/05 07:04:42;;;;;;;2.73;1.87;;;;;;;21.67;53.61;99580.34;4994413;28;41141;-81
2023/09/05 07:07:43;;;;;;;2.03;1.67;;;;;;;22.16;52.48;99602.53;4975576;28;38702;-79
2023/09/05 07:10:17;;;;;;;1.47;1.37;;;;;;;22.30;51.43;99580.44;4991097;28;41757;-83
2023/09/05 07:12:50;;;;;;;1.67;1.50;;;;;;;22.68;51.65;99614.41;4992935;28;42997;-82
2023/09/05 07:16:15;;;;;;;1.70;1.60;;;;;;;22.77;50.95;99623.47;4992948;28;42288;-80
2023/09/05 07:18:43;;;;;;;2.57;2.00;;;;;;;22.83;52.80;99603.94;4960515;28;38520;-80
2023/09/05 07:21:12;;;;;;;1.67;1.57;;;;;;;23.01;51.50;99612.84;4978727;28;42151;-81
2023/09/05 07:23:41;;;;;;;1.93;1.60;;;;;;;23.25;52.79;99607.63;4979600;28;41675;-80
2023/09/05 07:26:09;;;;;;;1.50;1.40;;;;;;;23.46;53.17;99592.91;4996773;28;43227;-82
2023/09/05 07:28:36;;;;;;;1.73;1.60;;;;;;;23.75;51.54;99617.78;4981629;28;39903;-82
2023/09/05 07:31:04;;;;;;;2.70;1.70;;;;;;;23.94;50.42;99625.66;4996484;28;41899;-81
2023/09/05 07:33:33;;;;;;;2.37;1.80;;;;;;;24.23;50.62;99619.03;4979874;28;41731;-79
2023/09/05 07:36:01;;;;;;;1.67;1.50;;;;;;;24.45;49.80;99623.00;4980278;28;41283;-80
2023/09/05 07:38:30;;;;;;;1.63;1.53;;;;;;;24.59;48.10;99631.31;4980394;28;39484;-79
2023/09/05 07:41:02;;;;;;;1.77;1.53;;;;;;;24.80;48.26;99630.00;4981011;28;42271;-80
2023/09/05 07:43:30;;;;;;;2.27;1.57;;;;;;;25.11;47.21;99632.91;4996548;28;42708;-81
2023/09/05 07:45:58;;;;;;;1.67;1.57;;;;;;;25.40;49.07;99615.09;4964729;28;42682;-79
2023/09/05 07:48:26;;;;;;;1.50;1.40;;;;;;;25.60;47.97;99607.41;4963590;28;39495;-78
2023/09/05 07:51:04;;;;;;;2.93;1.90;;;;;;;25.95;46.14;99637.88;4995196;28;43295;-79
2023/09/05 07:53:35;;;;;;;1.97;1.20;;;;;;;26.44;43.46;99643.97;4963909;28;42528;-79
2023/09/05 08:00:17;;;;;;;3.40;1.93;;;;;;;29.24;38.36;99625.88;4967674;28;41203;-83
2023/09/05 08:07:13;;;;;;;1.90;1.80;;;;;;;28.83;39.02;99626.56;4994031;28;43502;-81
2023/09/05 08:10:11;;;;;;;3.57;1.87;;;;;;;29.56;36.71;99677.19;4984225;28;42961;-82
2023/09/05 08:12:39;;;;;;;1.90;1.80;;;;;;;30.24;37.80;99667.38;4979779;28;39105;-82
2023/09/05 08:15:09;;;;;;;2.20;1.90;;;;;;;30.52;35.32;99666.44;4995878;28;42763;-83
2023/09/05 08:17:37;;;;;;;3.70;1.60;;;;;;;30.34;36.48;99665.09;4979518;28;41578;-79
2023/09/05 08:20:05;;;;;;;1.83;1.53;;;;;;;30.09;36.92;99653.00;4995638;28;41507;-80
2023/09/05 08:22:33;;;;;;;1.40;1.30;;;;;;;30.12;38.19;99647.13;4995860;28;40861;-83
2023/09/05 08:25:00;;;;;;;1.60;1.50;;;;;;;30.26;37.97;99643.44;4995923;28;41673;-82
2023/09/05 08:27:29;;;;;;;3.23;1.70;;;;;;;30.74;35.75;99662.56;5013339;28;43764;-83
2023/09/05 08:29:57;;;;;;;1.90;1.70;;;;;;;31.20;34.74;99670.03;4979018;28;42188;-81
2023/09/05 08:32:25;;;;;;;2.03;1.80;;;;;;;31.73;34.34;99671.75;4979667;28;38875;-82
2023/09/05 08:35:01;;;;;;;2.43;1.60;;;;;;;31.71;33.72;99668.38;4994763;28;41560;-87
2023/09/05 08:37:31;;;;;;;3.17;1.60;;;;;;;31.26;34.34;99652.78;4995409;28;42621;-80
2023/09/05 08:39:58;;;;;;;1.73;1.50;;;;;;;31.19;35.07;99671.06;4996114;28;41561;-81
2023/09/05 08:42:26;;;;;;;1.60;1.50;;;;;;;31.48;34.46;99656.97;5014006;28;40102;-84
2023/09/05 08:44:59;;;;;;;2.07;1.63;;;;;;;32.02;33.16;99664.13;5013540;28;42785;-81
2023/09/05 08:47:27;;;;;;;1.63;1.53;;;;;;;32.46;33.41;99645.00;4996362;28;41954;-82
2023/09/05 08:49:55;;;;;;;2.70;1.83;;;;;;;33.09;32.64;99666.19;4979617;28;42004;-83
2023/09/05 08:52:29;;;;;;;2.80;1.57;;;;;;;33.27;30.96;99679.16;5013645;28;40646;-80
2023/09/05 08:54:57;;;;;;;1.70;1.60;;;;;;;33.44;31.23;99658.34;4996036;28;40987;-83
2023/09/05 08:57:26;;;;;;;2.10;1.90;;;;;;;34.08;30.04;99663.44;4979676;28;42794;-80
2023/09/05 08:59:57;;;;;;;1.55;1.45;;;;;;;35.17;29.85;99669.88;4979348;28;41401;-82
2023/09/05 09:02:25;;;;;;;1.50;1.40;;;;;;;36.30;27.91;99683.41;5010888;28;40917;-82
2023/09/05 09:04:56;;;;;;;1.50;1.40;;;;;;;37.14;27.03;99686.50;4979481;28;41625;-86
2023/09/05 09:07:27;;;;;;;2.10;1.20;;;;;;;38.56;26.90;99673.03;4991648;28;43501;-77
2023/09/05 09:09:55;;;;;;;1.63;1.48;;;;;;;40.56;24.22;99675.22;4976857;28;41713;-80
2023/09/05 09:12:29;;;;;;;1.30;1.20;;;;;;;42.10;21.35;99706.63;4994332;28;41043;-82
2023/09/05 09:15:10;;;;;;;1.58;1.30;;;;;;;42.81;20.89;99700.81;4979735;28;20738;-80
2023/09/05 09:17:37;;;;;;;1.95;1.67;;;;;;;42.34;21.57;99683.69;4977663;28;42889;-77
2023/09/05 09:20:05;;;;;;;1.65;1.30;;;;;;;41.71;21.77;99691.63;4994341;28;42617;-81
2023/09/05 09:22:33;;;;;;;1.38;1.23;;;;;;;41.29;22.47;99689.09;4994099;28;40216;-81
2023/09/05 09:25:08;;;;;;;1.40;1.25;;;;;;;40.27;23.83;99683.16;4994103;28;40855;-83
2023/09/05 09:27:35;;;;;;;1.23;1.13;;;;;;;39.44;23.04;99680.06;4978656;28;41862;-84
2023/09/05 09:30:09;;;;;;;2.97;1.20;;;;;;;39.28;24.15;99672.69;4978312;28;42104;-82
2023/09/05 09:32:38;;;;;;;1.85;1.45;;;;;;;39.40;23.43;99684.44;4978011;28;38950;-83
2023/09/05 09:35:07;;;;;;;2.63;1.25;;;;;;;39.04;22.89;99685.22;4993529;28;40723;-82
2023/09/05 09:37:35;;;;;;;2.25;1.02;;;;;;;38.38;24.38;99678.84;4977994;28;41781;-82
2023/09/05 09:40:05;;;;;;;1.50;1.40;;;;;;;37.83;24.60;99671.41;5012720;28;43076;-80
2023/09/05 09:42:36;;;;;;;1.42;1.30;;;;;;;37.29;24.81;99668.31;4992864;28;40668;-81
2023/09/05 09:45:07;;;;;;;1.85;1.50;;;;;;;36.82;25.58;99661.34;4977340;28;40649;-81
2023/09/05 09:47:36;;;;;;;1.92;1.70;;;;;;;36.34;26.34;99654.28;4995201;28;42949;-82
2023/09/05 09:50:04;;;;;;;1.50;1.40;;;;;;;36.00;27.16;99645.78;5012173;28;42224;-77
2023/09/05 09:52:36;;;;;;;2.88;1.55;;;;;;;35.75;27.85;99644.34;4994331;28;39254;-78
2023/09/05 09:55:09;;;;;;;1.48;1.30;;;;;;;35.81;28.11;99637.91;4962748;28;40970;-81
2023/09/05 09:57:44;;;;;;;1.60;1.50;;;;;;;35.52;26.54;99629.47;4994958;28;42532;-86
2023/09/05 10:00:18;;;;;;;1.85;1.42;;;;;;;35.53;27.67;99641.34;4994409;28;41077;-83
2023/09/05 10:02:47;;;;;;;1.50;1.40;;;;;;;35.54;26.20;99643.84;4994224;28;40525;-82
2023/09/05 10:05:16;;;;;;;1.60;1.50;;;;;;;35.87;26.23;99626.72;4977839;28;40643;-83
2023/09/05 10:07:44;;;;;;;1.35;1.25;;;;;;;35.92;26.62;99623.25;4992464;28;43556;-83
2023/09/05 10:10:15;;;;;;;1.67;1.30;;;;;;;35.89;26.45;99629.25;4993365;28;40995;-80
2023/09/05 10:12:45;;;;;;;2.38;1.73;;;;;;;35.49;27.17;99623.59;4977281;28;38991;-83
2023/09/05 10:15:15;;;;;;;1.67;1.52;;;;;;;35.04;27.75;99632.38;4993838;28;41675;-81
2023/09/05 10:17:43;;;;;;;1.50;1.40;;;;;;;34.61;27.56;99635.31;4976891;28;44162;-81
2023/09/05 10:20:14;;;;;;;1.50;1.40;;;;;;;34.20;28.08;99630.53;4977338;28;41396;-80
2023/09/05 10:22:43;;;;;;;1.47;1.37;;;;;;;33.84;29.04;99623.97;5011142;28;40324;-81
2023/09/05 10:25:13;;;;;;;2.40;1.63;;;;;;;33.43;29.03;99602.56;4992956;28;41652;-87
2023/09/05 10:27:40;;;;;;;1.53;1.43;;;;;;;33.54;28.52;99609.22;4993100;28;41746;-82
2023/09/05 10:30:10;;;;;;;1.60;1.50;;;;;;;33.86;28.40;99621.81;4993843;28;42285;-83
2023/09/05 10:32:49;;;;;;;1.30;1.20;;;;;;;34.80;30.84;99583.84;4977696;28;39645;-82
2023/09/05 10:35:18;;;;;;;1.50;1.40;;;;;;;35.31;28.31;99602.50;4993288;28;41286;-81
2023/09/05 10:37:52;;;;;;;1.43;1.33;;;;;;;35.21;27.84;99603.09;4992740;28;43552;-86
2023/09/05 10:40:33;;;;;;;1.90;1.60;;;;;;;35.09;27.96;99607.72;4992493;28;41329;-79
2023/09/05 10:43:03;;;;;;;2.08;1.58;;;;;;;35.21;27.78;99603.09;4977312;28;40216;-81
2023/09/05 10:45:36;;;;;;;1.48;1.30;;;;;;;35.91;25.53;99619.66;5004249;28;41637;-78
2023/09/05 10:48:11;;;;;;;1.58;1.48;;;;;;;36.65;26.05;99601.34;4977823;28;42975;-82
2023/09/05 10:51:11;;;;;;;1.50;1.40;;;;;;;36.98;24.33;99624.59;4987798;28;42811;-81
2023/09/05 10:53:40;;;;;;;1.58;1.48;;;;;;;36.80;24.99;99606.34;4993741;28;41709;-79
2023/09/05 10:56:40;;;;;;;2.35;1.20;;;;;;;36.75;25.54;99599.88;4977515;28;40791;-84
2023/09/05 10:59:10;;;;;;;1.45;1.35;;;;;;;36.75;26.80;99586.09;4994185;28;41985;-84
2023/09/05 11:01:54;;;;;;;1.83;1.45;;;;;;;36.53;26.86;99570.22;4994706;28;41671;-80
2023/09/05 11:04:29;;;;;;;2.50;1.40;;;;;;;36.30;28.69;99531.69;4978009;28;40023;-80
2023/09/05 11:06:59;;;;;;;1.63;1.52;;;;;;;36.46;26.44;99575.06;4975861;28;40779;-81
2023/09/05 11:09:27;;;;;;;1.35;1.25;;;;;;;36.60;26.51;99570.88;4993340;28;42797;-86
2023/09/05 11:11:55;;;;;;;1.50;1.40;;;;;;;36.51;26.34;99571.53;4992793;28;42801;-82
2023/09/05 11:14:33;;;;;;;1.73;1.35;;;;;;;36.41;25.56;99572.19;4977266;28;39166;-86
2023/09/05 11:17:02;;;;;;;1.50;1.40;;;;;;;36.36;26.31;99563.78;4976500;28;41387;-87
2023/09/05 11:19:38;;;;;;;2.08;1.55;;;;;;;36.52;26.00;99567.69;4993287;28;42109;-86
2023/09/05 11:22:11;;;;;;;1.52;1.42;;;;;;;37.34;26.31;99548.75;4994085;28;43060;-80
2023/09/05 11:24:45;;;;;;;1.67;1.38;;;;;;;38.59;25.08;99550.66;4998257;28;39093;-81
2023/09/05 11:27:13;;;;;;;1.50;1.35;;;;;;;40.26;23.27;99566.84;4984003;28;40912;-82
2023/09/05 11:29:42;;;;;;;2.10;1.60;;;;;;;40.71;23.16;99558.66;5001169;28;43754;-81
2023/09/05 11:32:13;;;;;;;2.70;1.45;;;;;;;40.74;22.05;99580.34;4998827;28;40889;-85
2023/09/05 11:34:43;;;;;;;2.08;1.50;;;;;;;40.38;23.34;99567.44;4979617;28;38672;-87
2023/09/05 11:37:16;;;;;;;1.45;1.30;;;;;;;41.25;22.73;99574.81;4993505;28;40870;-82
2023/09/05 11:39:47;;;;;;;1.60;1.50;;;;;;;42.16;22.28;99574.59;4977728;28;43589;-87
2023/09/05 11:42:19;;;;;;;1.67;1.40;;;;;;;42.77;20.69;99571.53;4977112;28;41468;-84
2023/09/05 11:44:47;;;;;;;1.58;1.48;;;;;;;43.39;20.39;99583.88;4994011;28;41652;-84
2023/09/05 11:47:15;;;;;;;1.38;1.27;;;;;;;44.13;20.05;99571.38;4977420;28;42129;-80
2023/09/05 11:49:47;;;;;;;1.40;1.30;;;;;;;44.67;19.36;99575.63;5010936;28;42680;-79
2023/09/05 11:52:16;;;;;;;1.52;1.25;;;;;;;45.39;19.57;99567.75;4989370;28;42357;-78
2023/09/05 11:54:47;;;;;;;1.23;1.13;;;;;;;46.62;16.92;99586.56;4976660;28;39001;-78